createdAt,value
2019-05-03T00:01:02.270Z,4.55
2019-05-03T00:03:32.002Z,5.62
2019-05-03T00:06:03.661Z,5.15
2019-05-03T00:08:33.375Z,4.05
2019-05-03T00:11:02.350Z,5.35
2019-05-03T00:13:32.557Z,5.50
2019-05-03T00:16:22.494Z,5.90
2019-05-03T00:18:50.424Z,5.03
2019-05-03T00:21:21.886Z,5.15
2019-05-03T00:23:52.275Z,5.30
2019-05-03T00:26:22.499Z,5.95
2019-05-03T00:28:52.047Z,5.85
2019-05-03T00:31:22.622Z,5.92
2019-05-03T00:33:53.393Z,5.90
2019-05-03T00:36:36.518Z,5.90
2019-05-03T00:39:21.677Z,5.25
2019-05-03T00:41:52.087Z,5.85
2019-05-03T00:44:22.123Z,6.55
2019-05-03T00:46:51.321Z,7.10
2019-05-03T00:49:19.408Z,6.40
2019-05-03T00:51:52.279Z,6.00
2019-05-03T00:54:22.165Z,6.28
2019-05-03T00:56:49.866Z,6.10
2019-05-03T00:59:18.147Z,5.62
2019-05-03T01:01:48.088Z,7.20
2019-05-03T01:04:17.926Z,6.78
2019-05-03T01:06:47.783Z,7.20
2019-05-03T01:09:20.170Z,6.97
2019-05-03T01:11:48.035Z,7.10
2019-05-03T01:14:15.869Z,7.00
2019-05-03T01:16:47.140Z,6.30
2019-05-03T01:19:15.299Z,6.15
2019-05-03T01:21:44.875Z,6.97
2019-05-03T01:24:14.947Z,6.62
2019-05-03T01:26:42.878Z,7.12
2019-05-03T01:29:14.345Z,6.53
2019-05-03T01:31:45.142Z,6.45
2019-05-03T01:34:13.050Z,6.72
2019-05-03T01:36:42.696Z,6.92
2019-05-03T01:39:12.785Z,7.10
2019-05-03T01:41:41.703Z,7.45
2019-05-03T01:44:15.774Z,7.15
2019-05-03T01:46:44.328Z,7.25
2019-05-03T01:49:19.430Z,7.08
2019-05-03T01:52:21.946Z,6.80
2019-05-03T01:54:52.183Z,7.05
2019-05-03T01:57:21.947Z,8.28
2019-05-03T01:59:52.109Z,6.95
2019-05-03T02:02:33.246Z,7.47
2019-05-03T02:05:19.017Z,8.15
2019-05-03T02:07:48.665Z,8.30
2019-05-03T02:10:22.720Z,8.68
2019-05-03T02:12:52.267Z,7.67
2019-05-03T02:15:23.283Z,6.95
2019-05-03T02:17:52.071Z,8.30
2019-05-03T02:20:21.984Z,7.28
2019-05-03T02:22:52.057Z,7.83
2019-05-03T02:25:23.162Z,7.30
2019-05-03T02:27:52.602Z,7.47
2019-05-03T02:30:20.488Z,7.28
2019-05-03T02:32:53.147Z,8.95
2019-05-03T02:35:19.744Z,6.87
2019-05-03T02:37:53.176Z,7.50
2019-05-03T02:40:24.457Z,6.92
2019-05-03T02:43:28.403Z,6.40
2019-05-03T02:46:25.316Z,5.90
2019-05-03T02:49:00.163Z,6.70
2019-05-03T02:51:28.233Z,5.87
2019-05-03T02:53:57.118Z,6.30
2019-05-03T02:56:27.924Z,6.33
2019-05-03T02:58:56.204Z,5.80
2019-05-03T03:01:26.307Z,7.65
2019-05-03T03:03:56.013Z,5.72
2019-05-03T03:06:26.686Z,5.45
2019-05-03T03:08:56.260Z,6.58
2019-05-03T03:11:26.208Z,5.10
2019-05-03T03:13:59.702Z,6.17
2019-05-03T03:16:28.314Z,5.85
2019-05-03T03:18:56.228Z,6.15
2019-05-03T03:21:27.219Z,6.10
2019-05-03T03:24:12.432Z,6.40
2019-05-03T03:26:47.198Z,6.10
2019-05-03T03:29:16.534Z,5.87
2019-05-03T03:31:57.697Z,6.42
2019-05-03T03:34:27.900Z,6.25
2019-05-03T03:37:04.422Z,6.10
2019-05-03T03:39:26.264Z,6.20
2019-05-03T03:41:55.882Z,5.80
2019-05-03T03:44:39.819Z,6.37
2019-05-03T03:47:11.700Z,6.87
2019-05-03T03:49:41.483Z,6.20
2019-05-03T03:52:11.758Z,6.20
2019-05-03T03:54:45.612Z,6.83
2019-05-03T03:57:17.718Z,6.30
2019-05-03T03:59:50.021Z,6.05
2019-05-03T04:02:20.201Z,6.05
2019-05-03T04:04:48.767Z,5.97
2019-05-03T04:07:16.720Z,5.50
2019-05-03T04:09:45.729Z,6.17
2019-05-03T04:12:16.247Z,6.40
2019-05-03T04:15:05.465Z,7.22
2019-05-03T04:17:58.638Z,6.08
2019-05-03T04:20:31.973Z,6.53
2019-05-03T04:23:00.129Z,6.75
2019-05-03T04:25:28.245Z,6.55
2019-05-03T04:27:56.454Z,6.20
2019-05-03T04:30:25.714Z,5.35
2019-05-03T04:32:56.549Z,5.75
2019-05-03T04:35:26.541Z,4.40
2019-05-03T04:37:56.355Z,4.95
2019-05-03T04:40:25.985Z,5.20
2019-05-03T04:42:55.933Z,5.05
2019-05-03T04:45:25.594Z,5.30
2019-05-03T04:48:02.078Z,5.15
2019-05-03T04:50:30.257Z,4.12
2019-05-03T04:53:05.675Z,4.17
2019-05-03T04:55:36.485Z,4.35
2019-05-03T04:58:04.990Z,3.75
2019-05-03T05:00:35.575Z,3.87
2019-05-03T05:03:05.594Z,4.55
2019-05-03T05:05:32.454Z,4.33
2019-05-03T05:08:00.317Z,3.72
2019-05-03T05:10:28.229Z,3.85
2019-05-03T05:12:56.097Z,4.45
2019-05-03T05:15:27.455Z,4.20
2019-05-03T05:18:12.750Z,4.33
2019-05-03T05:20:55.481Z,3.47
2019-05-03T05:23:25.099Z,3.35
2019-05-03T05:25:59.534Z,3.47
2019-05-03T05:28:40.318Z,4.80
2019-05-03T05:31:08.193Z,4.12
2019-05-03T05:33:36.044Z,4.00
2019-05-03T05:36:04.835Z,4.42
2019-05-03T05:38:34.582Z,3.67
2019-05-03T05:41:02.540Z,5.62
2019-05-03T05:43:30.420Z,4.40
2019-05-03T05:45:58.942Z,3.98
2019-05-03T05:48:32.383Z,3.70
2019-05-03T05:51:00.274Z,5.65
2019-05-03T05:53:28.138Z,3.30
2019-05-03T05:56:20.622Z,3.33
2019-05-03T05:59:14.784Z,3.80
2019-05-03T06:01:50.543Z,3.75
2019-05-03T06:04:18.415Z,3.58
2019-05-03T06:07:08.319Z,2.80
2019-05-03T06:09:51.210Z,3.00
2019-05-03T06:12:35.287Z,3.05
2019-05-03T06:15:08.119Z,3.12
2019-05-03T06:17:41.935Z,3.22
2019-05-03T06:20:34.944Z,3.05
2019-05-03T06:23:14.475Z,2.65
2019-05-03T06:25:42.906Z,2.40
2019-05-03T06:28:37.922Z,2.10
2019-05-03T06:31:31.050Z,2.77
2019-05-03T06:33:58.942Z,2.90
2019-05-03T06:36:26.815Z,2.30
2019-05-03T06:38:54.847Z,3.45
2019-05-03T06:41:22.805Z,2.50
2019-05-03T06:43:50.661Z,2.00
2019-05-03T06:46:23.511Z,2.40
2019-05-03T06:48:50.133Z,2.35
2019-05-03T06:51:20.162Z,2.45
2019-05-03T06:53:50.653Z,3.40
2019-05-03T06:56:19.395Z,2.35
2019-05-03T06:58:47.565Z,2.65
2019-05-03T07:01:25.400Z,2.45
2019-05-03T07:04:00.651Z,2.20
2019-05-03T07:06:45.452Z,2.65
2019-05-03T07:09:27.686Z,2.10
2019-05-03T07:11:55.666Z,2.65
2019-05-03T07:14:24.694Z,2.15
2019-05-03T07:16:52.768Z,2.27
2019-05-03T07:19:20.662Z,2.22
2019-05-03T07:21:48.555Z,2.05
2019-05-03T07:24:16.491Z,2.15
2019-05-03T07:26:44.824Z,2.35
2019-05-03T07:29:12.850Z,1.87
2019-05-03T07:31:44.637Z,2.50
2019-05-03T07:34:12.338Z,1.80
2019-05-03T07:36:41.277Z,2.15
2019-05-03T07:39:09.344Z,1.95
2019-05-03T07:41:37.177Z,2.55
2019-05-03T07:44:05.430Z,2.40
2019-05-03T07:46:34.879Z,2.65
2019-05-03T07:49:04.890Z,1.90
2019-05-03T07:51:34.651Z,2.30
2019-05-03T07:54:02.183Z,1.77
2019-05-03T07:56:35.577Z,1.65
2019-05-03T07:59:06.333Z,1.95
2019-05-03T08:01:38.065Z,2.12
2019-05-03T08:04:06.150Z,1.85
2019-05-03T08:06:34.607Z,2.10
2019-05-03T08:09:02.566Z,2.15
2019-05-03T08:11:30.413Z,2.30
2019-05-03T08:13:58.272Z,2.25
2019-05-03T08:16:26.081Z,2.20
2019-05-03T08:18:55.916Z,2.10
2019-05-03T08:21:25.236Z,1.80
2019-05-03T08:23:55.598Z,2.17
2019-05-03T08:26:25.073Z,1.80
2019-05-03T08:28:54.517Z,2.05
2019-05-03T08:31:56.979Z,1.85
2019-05-03T08:34:45.167Z,2.10
2019-05-03T08:37:16.337Z,2.15
2019-05-03T08:39:44.742Z,2.60
2019-05-03T08:42:18.470Z,2.00
2019-05-03T08:44:46.334Z,2.20
2019-05-03T08:47:15.495Z,2.00
2019-05-03T08:49:45.019Z,1.57
2019-05-03T08:52:13.061Z,2.00
2019-05-03T08:54:40.917Z,2.45
2019-05-03T08:57:09.822Z,1.80
2019-05-03T08:59:37.673Z,2.60
2019-05-03T09:02:14.022Z,1.72
2019-05-03T09:04:38.051Z,2.30
2019-05-03T09:07:06.927Z,1.90
2019-05-03T09:09:50.090Z,1.95
2019-05-03T09:12:18.499Z,2.45
2019-05-03T09:14:48.509Z,1.82
2019-05-03T09:17:16.118Z,2.05
2019-05-03T09:19:45.658Z,2.80
2019-05-03T09:22:14.761Z,1.92
2019-05-03T09:24:45.401Z,1.98
2019-05-03T09:27:15.571Z,1.62
2019-05-03T09:29:46.080Z,2.00
2019-05-03T09:32:14.728Z,2.10
2019-05-03T09:34:44.520Z,2.47
2019-05-03T09:37:12.469Z,2.40
2019-05-03T09:39:40.318Z,2.10
2019-05-03T09:42:08.294Z,1.90
2019-05-03T09:44:36.204Z,2.22
2019-05-03T09:47:05.568Z,2.27
2019-05-03T09:49:34.784Z,2.02
2019-05-03T09:52:05.495Z,2.30
2019-05-03T09:54:39.179Z,1.90
2019-05-03T09:57:07.147Z,1.52
2019-05-03T09:59:37.408Z,2.35
2019-05-03T10:02:05.473Z,1.50
2019-05-03T10:04:33.368Z,1.75
2019-05-03T10:07:01.352Z,1.80
2019-05-03T10:09:29.305Z,1.80
2019-05-03T10:11:57.680Z,1.95
2019-05-03T10:14:25.699Z,1.47
2019-05-03T10:17:15.944Z,1.70
2019-05-03T10:19:45.176Z,1.80
2019-05-03T10:22:15.377Z,2.00
2019-05-03T10:24:45.660Z,1.90
2019-05-03T10:27:15.208Z,2.15
2019-05-03T10:29:44.715Z,2.30
2019-05-03T10:32:25.645Z,1.57
2019-05-03T10:35:02.473Z,2.12
2019-05-03T10:37:31.564Z,1.95
2019-05-03T10:39:59.888Z,2.05
2019-05-03T10:42:27.811Z,2.42
2019-05-03T10:44:55.726Z,2.00
2019-05-03T10:47:25.743Z,2.00
2019-05-03T10:49:55.020Z,1.80
2019-05-03T10:52:25.927Z,1.85
2019-05-03T10:54:55.868Z,1.80
2019-05-03T10:57:24.824Z,1.60
2019-05-03T10:59:53.001Z,1.95
2019-05-03T11:02:48.922Z,2.10
2019-05-03T11:05:16.810Z,2.20
2019-05-03T11:07:45.172Z,1.75
2019-05-03T11:10:14.709Z,1.85
2019-05-03T11:12:42.995Z,1.95
2019-05-03T11:15:11.116Z,2.25
2019-05-03T11:17:39.204Z,1.90
2019-05-03T11:20:07.213Z,1.70
2019-05-03T11:22:35.090Z,1.82
2019-05-03T11:25:05.051Z,1.50
2019-05-03T11:27:49.355Z,1.77
2019-05-03T11:30:17.843Z,1.95
2019-05-03T11:32:55.460Z,1.40
2019-05-03T11:35:41.875Z,1.92
2019-05-03T11:38:18.881Z,1.95
2019-05-03T11:40:46.849Z,1.67
2019-05-03T11:43:15.245Z,2.17
2019-05-03T11:45:44.879Z,1.80
2019-05-03T11:48:14.757Z,2.05
2019-05-03T11:50:45.184Z,1.62
2019-05-03T11:53:14.410Z,2.42
2019-05-03T11:55:42.182Z,2.00
2019-05-03T11:58:21.371Z,1.75
2019-05-03T12:01:10.852Z,2.08
2019-05-03T12:03:28.823Z,2.25
2019-05-03T12:05:58.532Z,1.80
2019-05-03T12:08:26.381Z,2.30
2019-05-03T12:10:58.674Z,1.70
2019-05-03T12:13:29.901Z,2.00
2019-05-03T12:15:58.083Z,1.90
2019-05-03T12:18:26.536Z,1.70
2019-05-03T12:20:57.041Z,2.17
2019-05-03T12:23:25.770Z,2.17
2019-05-03T12:25:54.911Z,1.60
2019-05-03T12:28:25.502Z,1.60
2019-05-03T12:30:52.836Z,1.92
2019-05-03T12:33:20.676Z,2.17
2019-05-03T12:35:48.488Z,2.10
2019-05-03T12:38:16.660Z,2.02
2019-05-03T12:40:45.547Z,1.82
2019-05-03T12:43:14.937Z,2.10
2019-05-03T12:45:42.975Z,1.70
2019-05-03T12:48:10.909Z,2.30
2019-05-03T12:50:39.059Z,2.37
2019-05-03T12:53:07.238Z,2.17
2019-05-03T12:55:35.753Z,2.05
2019-05-03T12:58:05.850Z,1.92
2019-05-03T13:00:55.824Z,2.08
2019-05-03T13:03:28.141Z,2.10
2019-05-03T13:05:55.959Z,1.87
2019-05-03T13:08:48.994Z,2.52
2019-05-03T13:11:16.879Z,2.25
2019-05-03T13:13:45.343Z,2.05
2019-05-03T13:16:17.033Z,2.47
2019-05-03T13:18:45.754Z,2.20
2019-05-03T13:21:14.104Z,2.30
2019-05-03T13:23:42.046Z,2.33
2019-05-03T13:26:09.908Z,2.60
2019-05-03T13:28:37.826Z,2.17
2019-05-03T13:31:06.205Z,1.70
2019-05-03T13:33:34.776Z,1.75
2019-05-03T13:36:03.020Z,2.20
2019-05-03T13:38:30.863Z,2.40
2019-05-03T13:40:58.765Z,2.20
2019-05-03T13:43:26.572Z,1.70
2019-05-03T13:45:55.628Z,2.47
2019-05-03T13:48:26.103Z,2.37
2019-05-03T13:50:55.035Z,2.20
2019-05-03T13:53:22.826Z,1.70
2019-05-03T13:55:50.671Z,2.40
2019-05-03T13:58:18.746Z,1.85
2019-05-03T14:00:47.445Z,2.90
2019-05-03T14:03:15.448Z,2.12
2019-05-03T14:05:44.567Z,2.33
2019-05-03T14:08:12.574Z,2.20
2019-05-03T14:10:40.828Z,2.10
2019-05-03T14:13:08.854Z,1.90
2019-05-03T14:15:36.701Z,2.33
2019-05-03T14:18:05.937Z,2.50
2019-05-03T14:20:56.083Z,2.12
2019-05-03T14:23:25.353Z,2.50
2019-05-03T14:25:55.101Z,2.17
2019-05-03T14:28:25.067Z,2.30
2019-05-03T14:30:54.711Z,2.75
2019-05-03T14:33:24.676Z,2.10
2019-05-03T14:35:54.549Z,2.42
2019-05-03T14:38:22.131Z,2.52
2019-05-03T14:40:50.035Z,4.78
2019-05-03T14:43:17.875Z,2.52
2019-05-03T14:45:45.710Z,4.95
2019-05-03T14:48:15.221Z,3.00
2019-05-03T14:50:45.426Z,2.55
2019-05-03T14:53:14.630Z,2.60
2019-05-03T14:55:47.599Z,2.60
2019-05-03T14:58:35.164Z,2.33
2019-05-03T15:01:25.431Z,2.12
2019-05-03T15:03:54.990Z,2.55
2019-05-03T15:06:24.928Z,2.52
2019-05-03T15:08:54.609Z,2.42
2019-05-03T15:11:22.072Z,2.10
2019-05-03T15:13:49.918Z,2.30
2019-05-03T15:16:17.748Z,3.30
2019-05-03T15:18:45.567Z,2.58
2019-05-03T15:21:14.580Z,2.75
2019-05-03T15:23:42.649Z,2.45
2019-05-03T15:26:10.481Z,2.15
2019-05-03T15:28:38.339Z,2.70
2019-05-03T15:31:06.154Z,3.12
2019-05-03T15:33:35.328Z,2.70
2019-05-03T15:36:04.742Z,2.30
2019-05-03T15:38:34.620Z,2.30
2019-05-03T15:41:02.465Z,2.50
2019-05-03T15:43:45.208Z,2.40
2019-05-03T15:46:28.233Z,2.52
2019-05-03T15:48:58.309Z,2.15
2019-05-03T15:51:26.180Z,2.90
2019-05-03T15:53:55.132Z,2.30
2019-05-03T15:56:25.089Z,2.25
2019-05-03T15:58:52.839Z,2.17
2019-05-03T16:01:20.643Z,2.60
2019-05-03T16:03:48.529Z,2.45
2019-05-03T16:06:16.389Z,2.45
2019-05-03T16:08:44.631Z,2.50
2019-05-03T16:11:14.662Z,2.22
2019-05-03T16:13:42.185Z,2.60
2019-05-03T16:16:10.053Z,2.55
2019-05-03T16:18:37.943Z,2.60
2019-05-03T16:21:06.470Z,2.30
2019-05-03T16:23:34.326Z,2.60
2019-05-03T16:26:02.266Z,2.65
2019-05-03T16:28:38.673Z,3.45
2019-05-03T16:31:09.473Z,2.40
2019-05-03T16:33:37.354Z,2.20
2019-05-03T16:36:05.559Z,2.02
2019-05-03T16:38:35.476Z,2.30
2019-05-03T16:41:05.157Z,2.40
2019-05-03T16:43:34.885Z,7.58
2019-05-03T16:46:03.132Z,10.30
2019-05-03T16:48:30.966Z,2.55
2019-05-03T16:50:58.830Z,3.15
2019-05-03T16:53:26.680Z,2.80
2019-05-03T16:55:54.796Z,4.45
2019-05-03T16:58:24.728Z,2.90
2019-05-03T17:00:52.434Z,2.70
2019-05-03T17:03:38.172Z,2.30
2019-05-03T17:06:17.196Z,2.62
2019-05-03T17:09:21.226Z,2.27
2019-05-03T17:12:10.189Z,4.15
2019-05-03T17:14:38.438Z,4.75
2019-05-03T17:17:08.408Z,4.33
2019-05-03T17:19:36.598Z,2.70
2019-05-03T17:22:09.106Z,2.83
2019-05-03T17:24:38.665Z,3.27
2019-05-03T17:27:08.095Z,2.42
2019-05-03T17:29:37.600Z,3.20
2019-05-03T17:32:05.462Z,2.85
2019-05-03T17:34:36.434Z,2.95
2019-05-03T17:37:05.180Z,2.20
2019-05-03T17:40:02.104Z,2.58
2019-05-03T17:42:47.609Z,3.50
2019-05-03T17:45:17.616Z,3.10
2019-05-03T17:47:47.834Z,2.95
2019-05-03T17:50:15.720Z,2.75
2019-05-03T17:52:51.087Z,3.22
2019-05-03T17:55:37.056Z,2.90
2019-05-03T17:58:24.677Z,2.65
2019-05-03T18:01:23.934Z,2.40
2019-05-03T18:04:05.731Z,2.95
2019-05-03T18:06:30.419Z,3.25
2019-05-03T18:09:14.775Z,3.60
2019-05-03T18:11:45.606Z,2.52
2019-05-03T18:14:15.204Z,2.30
2019-05-03T18:16:50.785Z,2.85
2019-05-03T18:19:21.050Z,2.95
2019-05-03T18:21:48.973Z,2.42
2019-05-03T18:24:20.251Z,3.87
2019-05-03T18:26:51.914Z,3.00
2019-05-03T18:29:19.986Z,2.70
2019-05-03T18:31:47.990Z,3.60
2019-05-03T18:34:19.876Z,3.70
2019-05-03T18:36:47.906Z,3.10
2019-05-03T18:39:16.114Z,3.10
2019-05-03T18:41:45.226Z,3.05
2019-05-03T18:44:31.044Z,3.20
2019-05-03T18:47:01.751Z,3.05
2019-05-03T18:49:35.352Z,2.60
2019-05-03T18:52:04.421Z,3.17
2019-05-03T18:54:32.483Z,4.47
2019-05-03T18:57:00.449Z,3.00
2019-05-03T18:59:28.347Z,2.87
2019-05-03T19:01:56.308Z,2.70
2019-05-03T19:04:50.461Z,3.60
2019-05-03T19:07:40.422Z,3.15
2019-05-03T19:10:16.930Z,3.25
2019-05-03T19:12:57.729Z,3.05
2019-05-03T19:15:25.663Z,3.00
2019-05-03T19:18:00.780Z,3.10
2019-05-03T19:20:28.703Z,2.85
2019-05-03T19:22:56.657Z,3.20
2019-05-03T19:25:25.545Z,3.05
2019-05-03T19:27:54.554Z,2.95
2019-05-03T19:30:24.927Z,3.17
2019-05-03T19:32:52.780Z,4.87
2019-05-03T19:35:20.673Z,3.42
2019-05-03T19:37:48.602Z,3.00
2019-05-03T19:40:16.569Z,2.50
2019-05-03T19:42:44.787Z,2.75
2019-05-03T19:45:15.128Z,2.80
2019-05-03T19:47:44.600Z,3.12
2019-05-03T19:50:15.748Z,2.65
2019-05-03T19:53:15.178Z,2.85
2019-05-03T19:55:44.886Z,2.50
2019-05-03T19:58:14.437Z,2.40
2019-05-03T20:01:01.577Z,2.70
2019-05-03T20:03:35.848Z,2.33
2019-05-03T20:06:25.030Z,2.70
2019-05-03T20:08:59.073Z,2.60
2019-05-03T20:11:28.287Z,3.83
2019-05-03T20:13:56.293Z,2.62
2019-05-03T20:16:24.259Z,2.05
2019-05-03T20:18:55.530Z,2.42
2019-05-03T20:21:25.263Z,2.92
2019-05-03T20:23:55.538Z,2.60
2019-05-03T20:26:25.651Z,2.83
2019-05-03T20:28:55.304Z,2.60
2019-05-03T20:31:25.243Z,3.10
2019-05-03T20:33:54.865Z,3.15
2019-05-03T20:36:22.927Z,3.40
2019-05-03T20:38:55.074Z,3.35
2019-05-03T20:41:27.394Z,2.83
2019-05-03T20:44:05.291Z,5.53
2019-05-03T20:47:01.946Z,3.52
2019-05-03T20:49:30.469Z,3.45
2019-05-03T20:51:58.414Z,3.58
2019-05-03T20:54:26.419Z,4.47
2019-05-03T20:56:56.336Z,3.75
2019-05-03T20:59:42.116Z,4.10
2019-05-03T21:02:00.258Z,4.90
2019-05-03T21:04:29.307Z,4.03
2019-05-03T21:06:57.273Z,3.60
2019-05-03T21:09:25.198Z,4.00
2019-05-03T21:11:55.221Z,4.72
2019-05-03T21:14:24.462Z,3.58
2019-05-03T21:17:14.888Z,3.87
2019-05-03T21:19:55.051Z,3.25
2019-05-03T21:22:30.032Z,3.47
2019-05-03T21:25:06.640Z,4.05
2019-05-03T21:27:36.660Z,3.70
2019-05-03T21:30:05.160Z,3.10
2019-05-03T21:32:35.031Z,3.00
2019-05-03T21:35:05.410Z,3.77
2019-05-03T21:37:35.235Z,3.42
2019-05-03T21:40:06.135Z,3.30
2019-05-03T21:42:35.057Z,3.40
2019-05-03T21:45:04.695Z,3.42
2019-05-03T21:47:47.558Z,3.37
2019-05-03T21:50:17.144Z,3.30
2019-05-03T21:52:45.812Z,3.87
2019-05-03T21:55:14.451Z,3.70
2019-05-03T21:57:42.455Z,3.02
2019-05-03T22:00:11.569Z,3.52
2019-05-03T22:02:40.660Z,3.08
2019-05-03T22:05:08.745Z,3.45
2019-05-03T22:07:36.623Z,3.40
2019-05-03T22:10:05.060Z,3.45
2019-05-03T22:12:34.707Z,3.30
2019-05-03T22:15:10.526Z,3.45
2019-05-03T22:17:55.964Z,4.05
2019-05-03T22:20:39.695Z,4.40
2019-05-03T22:23:31.652Z,3.98
2019-05-03T22:26:00.254Z,3.60
2019-05-03T22:28:28.146Z,5.35
2019-05-03T22:30:58.573Z,3.35
2019-05-03T22:33:28.891Z,3.50
2019-05-03T22:36:08.337Z,3.42
2019-05-03T22:38:29.126Z,2.80
2019-05-03T22:40:58.019Z,3.40
2019-05-03T22:43:25.960Z,2.92
2019-05-03T22:45:54.864Z,2.75
2019-05-03T22:48:25.236Z,3.10
2019-05-03T22:50:55.413Z,3.17
2019-05-03T22:53:22.958Z,3.00
2019-05-03T22:55:55.596Z,3.15
2019-05-03T22:58:24.910Z,3.40
2019-05-03T23:00:54.934Z,3.30
2019-05-03T23:03:22.672Z,3.90
2019-05-03T23:05:54.332Z,3.62
2019-05-03T23:08:25.267Z,3.00
2019-05-03T23:10:54.731Z,2.95
2019-05-03T23:13:24.744Z,2.90
2019-05-03T23:15:54.553Z,3.50
2019-05-03T23:18:25.654Z,3.27
2019-05-03T23:21:02.405Z,3.33
2019-05-03T23:23:49.205Z,3.02
2019-05-03T23:26:17.127Z,3.60
2019-05-03T23:28:46.590Z,3.33
2019-05-03T23:31:16.956Z,3.65
2019-05-03T23:33:47.434Z,3.87
2019-05-03T23:36:15.514Z,3.98
2019-05-03T23:38:45.224Z,3.72
2019-05-03T23:41:15.259Z,3.42
2019-05-03T23:43:45.113Z,3.33
2019-05-03T23:46:14.622Z,3.15
2019-05-03T23:48:44.794Z,3.50
2019-05-03T23:51:52.253Z,4.75
2019-05-03T23:54:21.364Z,4.50
2019-05-03T23:56:49.308Z,3.95
2019-05-03T23:59:18.406Z,4.50
